KWRL/WRL METAR and TAF weather

Enter ICAO airport designator
Station Type Date Time Source
KWRL METAR 2019/11/22 00:53 UTC NOAA

KWRL 220053Z AUTO 14006KT 10SM CLR M04/M07 A3006 RMK AO2 SLP225 T10391072


Station Type Date Time Source
KWRL Decoded METAR 2019/11/22 00:53 UTC NOAA

WORLAND MUNICIPAL AIRPORT, WY, United States (KWRL) 43-58N 107-57W 1271M
Nov 21, 2019 - 07:53 PM EST / 2019.11.22 0053 UTC
Wind: from the SE (140 degrees) at 7 MPH (6 KT):0
Visibility: 10 mile(s):0
Sky conditions: clear
Temperature: 25.0 F (-3.9 C)
Windchill: 17 F (-8 C):1
Dew Point: 19.0 F (-7.2 C)
Relative Humidity: 77%
Pressure (altimeter): 30.06 in. Hg (1017 hPa)
ob: KWRL 220053Z AUTO 14006KT 10SM CLR M04/M07 A3006 RMK AO2 SLP225 T10391072
cycle: 1

Station Type Date Time Source
KWRL TAF 2019/11/21 18:42 UTC NOAA

TAF KWRL 211739Z 2118/2218 VRB05KT P6SM BKN040
FM212200 VRB05KT P6SM SKC

Example: see airport list